KB0ZXY Weather Reports


Display with metric or nautical units.
time (UTC)temp
F
wind
direction
speed
MPH
gust
MPH
rain 1hr
in
rain 24hr
in
rain mn
in
humidity
%
barometer
mb
20181019114434 52 171 3.0 6.0 0.00 0.00 0.00 77 1021.6
20181019103324 53 202 1.0 5.0 0.00 0.00 0.00 73 1022.1
20181019094424 53 152 4.0 7.0 0.00 0.00 0.00 71 1022.8
20181019092341 53 136 3.0 7.0 0.00 0.00 0.00 72 1022.7
20181019090334 53 198 3.0 7.0 0.00 0.00 0.00 72 1022.6
20181019085545 53 192 4.0 8.0 0.00 0.00 0.00 72 1022.8
20181019083331 53 188 2.0 8.0 0.00 0.00 0.00 72 1023.0
20181019080545 53 159 3.0 8.0 0.00 0.00 0.00 72 1023.1
20181019074330 53 157 1.0 5.0 0.00 0.00 0.00 72 1023.4
20181019073521 53 154 2.0 7.0 0.00 0.00 0.00 72 1023.5
20181019072425 53 144 1.0 5.0 0.00 0.00 0.00 72 1023.4
20181019071336 53 156 3.0 6.0 0.00 0.00 0.00 72 1023.6
20181019065332 52 146 1.0 4.0 0.00 0.00 0.00 73 1023.6
20181019061351 52 137 0.0 6.0 0.00 0.00 0.00 73 1024.5
20181019053347 52 155 0.0 6.0 0.00 0.00 0.00 73 1024.8
20181019052516 52 142 1.0 5.0 0.00 0.00 0.00 74 1024.9
20181019042340 52 122 0.0 1.0 0.00 0.00 0.00 74 1025.5
20181019040524 52 106 0.0 2.0 0.00 0.00 0.00 74 1025.5
20181019035332 53 74 1.0 3.0 0.00 0.00 0.00 72 1025.6
20181019034518 52 152 0.0 0.0 0.00 0.00 0.00 71 1025.7
20181019030352 51 152 0.0 1.0 0.00 0.00 0.00 75 1026.4
20181019021401 48 150 0.0 1.0 0.00 0.00 0.00 82 1027.0
20181019020421 49 148 0.0 0.0 0.00 0.00 0.00 81 1026.7
20181019012353 49 148 0.0 1.0 0.00 0.00 0.00 79 1026.9
20181019011341 50 148 0.0 2.0 0.00 0.00 0.00 78 1027.0
20181019005539 52 148 0.0 0.0 0.00 0.00 0.00 76 1027.0
20181019004422 53 148 0.0 0.0 0.00 0.00 0.00 73 1026.9
20181019003329 53 148 0.0 0.0 0.00 0.00 0.00 69 1026.7
20181019000345 57 148 0.0 0.0 0.00 0.00 0.00 61 1026.8
20181018235353 58 148 0.0 0.0 0.00 0.00 0.00 58 1026.9
20181018233509 60 148 0.0 0.0 0.00 0.00 0.00 55 1027.2
20181018232333 61 148 0.0 0.0 0.00 0.00 0.00 53 1027.2
20181018231419 62 148 0.0 3.0 0.00 0.00 0.00 51 1027.3
20181018230408 63 148 0.0 2.0 0.00 0.00 0.00 50 1027.6
20181018222406 66 160 2.0 6.0 0.00 0.00 0.00 44 1027.6
20181018221357 66 99 0.0 1.0 0.00 0.00 0.00 47 1027.9
20181018220405 66 99 0.0 2.0 0.00 0.00 0.00 46 1028.0
20181018215347 67 92 0.0 5.0 0.00 0.00 0.00 45 1028.2
20181018213438 67 182 2.0 6.0 0.00 0.00 0.00 42 1028.4
20181018212340 66 151 2.0 5.0 0.00 0.00 0.00 43 1028.4
20181018211326 67 65 2.0 7.0 0.00 0.00 0.00 45 1028.5
20181018201412 66 135 2.0 5.0 0.00 0.00 0.00 48 1029.0
20181018195503 66 98 1.0 7.0 0.00 0.00 0.00 45 1029.4
20181018192517 66 190 3.0 7.0 0.00 0.00 0.00 43 1029.9
20181018191441 66 91 2.0 5.0 0.00 0.00 0.00 48 1030.1
20181018190519 65 178 3.0 7.0 0.00 0.00 0.00 43 1030.4
20181018184407 64 164 2.0 5.0 0.00 0.00 0.00 45 1030.7
20181018175327 63 70 1.0 4.0 0.00 0.00 0.00 49 1031.4
20181018173443 62 215 4.0 9.0 0.00 0.00 0.00 48 1031.9
20181018165400 60 167 0.0 7.0 0.00 0.00 0.00 47 1032.5
20181018164451 60 138 3.0 6.0 0.00 0.00 0.00 50 1032.6
20181018162521 58 117 0.0 7.0 0.00 0.00 0.00 52 1032.8
20181018155456 57 179 1.0 6.0 0.00 0.00 0.00 54 1033.3
20181018153404 55 53 1.0 6.0 0.00 0.00 0.00 59 1033.3
20181018152333 53 123 2.0 5.0 0.00 0.00 0.00 65 1033.4
20181018151504 51 180 3.0 9.0 0.00 0.00 0.00 70 1033.5
20181018150330 50 153 3.0 7.0 0.00 0.00 0.00 74 1033.4
20181018145343 49 188 1.0 5.0 0.00 0.00 0.00 77 1033.5
20181018143332 45 103 0.0 9.0 0.00 0.00 0.00 87 1033.6
20181018134433 37 344 0.0 0.0 0.00 0.00 0.00 97 1033.2
20181018133440 36 344 0.0 0.0 0.00 0.00 0.00 96 1033.1
20181018131352 35 344 0.0 0.0 0.00 0.00 0.00 96 1032.9
20181018123531 35 344 0.0 0.0 0.00 0.00 0.00 95 1032.7
20181018121541 35 344 0.0 0.0 0.00 0.00 0.00 95 1032.6
20181018120403 35 344 0.0 0.0 0.00 0.00 0.00 94 1032.7
20181018115435 35 344 0.0 0.0 0.00 0.00 0.00 94 1032.6
20181018114459 35 344 0.0 0.0 0.00 0.00 0.00 94 1032.4